createdAt,value
2022-10-01T00:00:54.753Z,8.70
2022-10-01T00:03:22.388Z,8.70
2022-10-01T00:05:58.942Z,8.70
2022-10-01T00:08:27.051Z,8.70
2022-10-01T00:10:53.906Z,8.70
2022-10-01T00:13:22.653Z,8.70
2022-10-01T00:15:49.198Z,8.70
2022-10-01T00:18:15.851Z,8.70
2022-10-01T00:20:45.043Z,8.60
2022-10-01T00:23:12.177Z,8.60
2022-10-01T00:25:39.021Z,8.50
2022-10-01T00:28:05.596Z,8.40
2022-10-01T00:30:32.353Z,8.40
2022-10-01T00:32:58.906Z,8.40
2022-10-01T00:35:25.756Z,8.30
2022-10-01T00:37:52.943Z,8.30
2022-10-01T00:40:20.870Z,8.40
2022-10-01T00:42:49.648Z,8.40
2022-10-01T00:45:16.350Z,8.30
2022-10-01T00:47:46.746Z,8.30
2022-10-01T00:50:17.418Z,8.30
2022-10-01T00:52:46.868Z,8.30
2022-10-01T00:55:18.856Z,8.30
2022-10-01T00:57:50.117Z,8.30
2022-10-01T01:00:16.661Z,8.30
2022-10-01T01:02:43.247Z,8.30
2022-10-01T01:05:13.484Z,8.20
2022-10-01T01:07:45.315Z,8.20
2022-10-01T01:10:12.948Z,8.20
2022-10-01T01:12:39.441Z,8.20
2022-10-01T01:15:09.845Z,8.30
2022-10-01T01:17:41.877Z,8.30
2022-10-01T01:20:08.476Z,8.20
2022-10-01T01:22:36.444Z,8.20
2022-10-01T01:25:21.517Z,8.20
2022-10-01T01:28:08.248Z,8.10
2022-10-01T01:30:36.304Z,8.10
2022-10-01T01:33:14.798Z,8.10
2022-10-01T01:35:57.991Z,8.10
2022-10-01T01:38:29.574Z,8.00
2022-10-01T01:40:58.467Z,8.00
2022-10-01T01:43:36.272Z,7.90
2022-10-01T01:46:04.677Z,8.00
2022-10-01T01:48:31.981Z,7.90
2022-10-01T01:51:16.678Z,7.90
2022-10-01T01:53:43.430Z,8.00
2022-10-01T01:56:09.970Z,8.00
2022-10-01T01:58:37.887Z,8.00
2022-10-01T02:01:04.787Z,8.00
2022-10-01T02:03:33.289Z,8.00
2022-10-01T02:06:02.572Z,8.10
2022-10-01T02:08:29.054Z,8.10
2022-10-01T02:10:57.789Z,8.20
2022-10-01T02:13:30.080Z,8.20
2022-10-01T02:16:01.199Z,8.20
2022-10-01T02:18:43.686Z,8.20
2022-10-01T02:21:16.309Z,8.20
2022-10-01T02:23:46.754Z,8.20
2022-10-01T02:26:16.247Z,8.30
2022-10-01T02:28:42.868Z,8.30
2022-10-01T02:31:11.045Z,8.30
2022-10-01T02:33:41.065Z,8.30
2022-10-01T02:36:10.982Z,8.40
2022-10-01T02:38:39.823Z,8.40
2022-10-01T02:41:07.825Z,8.40
2022-10-01T02:43:42.766Z,8.40
2022-10-01T02:46:30.989Z,8.40
2022-10-01T02:48:58.044Z,8.50
2022-10-01T02:51:43.347Z,8.60
2022-10-01T02:54:18.882Z,8.70
2022-10-01T02:57:05.194Z,8.80
2022-10-01T02:59:33.941Z,9.00
2022-10-01T03:02:03.001Z,9.10
2022-10-01T03:04:29.609Z,9.20
2022-10-01T03:06:56.125Z,9.40
2022-10-01T03:09:22.666Z,9.50
2022-10-01T03:11:49.157Z,9.60
2022-10-01T03:14:18.146Z,9.70
2022-10-01T03:16:44.653Z,9.80
2022-10-01T03:19:11.191Z,9.80
2022-10-01T03:21:37.722Z,9.90
2022-10-01T03:24:09.262Z,9.90
2022-10-01T03:26:36.430Z,10.00
2022-10-01T03:29:06.176Z,10.00
2022-10-01T03:31:33.438Z,10.00
2022-10-01T03:34:02.646Z,10.10
2022-10-01T03:36:29.668Z,10.10
2022-10-01T03:38:56.477Z,10.10
2022-10-01T03:41:26.214Z,10.10
2022-10-01T03:43:55.113Z,10.10
2022-10-01T03:46:26.215Z,10.10
2022-10-01T03:48:52.865Z,10.10
2022-10-01T03:51:22.109Z,10.10
2022-10-01T03:53:48.645Z,10.10
2022-10-01T03:56:15.416Z,10.10
2022-10-01T03:58:42.060Z,10.10
2022-10-01T04:01:08.584Z,10.10
2022-10-01T04:03:35.289Z,10.10
2022-10-01T04:06:01.839Z,10.10
2022-10-01T04:08:28.894Z,10.10
2022-10-01T04:10:55.387Z,10.10
2022-10-01T04:13:21.973Z,10.10
2022-10-01T04:15:50.801Z,10.10
2022-10-01T04:18:22.054Z,10.10
2022-10-01T04:20:48.685Z,10.00
2022-10-01T04:23:15.394Z,10.00
2022-10-01T04:25:42.082Z,10.00
2022-10-01T04:28:12.759Z,10.00
2022-10-01T04:30:43.205Z,10.00
2022-10-01T04:33:12.063Z,10.00
2022-10-01T04:35:39.247Z,10.00
2022-10-01T04:38:28.343Z,10.00
2022-10-01T04:40:55.010Z,10.00
2022-10-01T04:43:21.551Z,10.00
2022-10-01T04:45:48.036Z,10.00
2022-10-01T04:48:16.856Z,10.00
2022-10-01T04:50:43.568Z,10.00
2022-10-01T04:53:10.056Z,10.00
2022-10-01T04:55:38.803Z,10.00
2022-10-01T04:58:05.676Z,10.00
2022-10-01T05:00:32.253Z,10.00
2022-10-01T05:02:58.868Z,10.00
2022-10-01T05:05:27.368Z,10.00
2022-10-01T05:07:53.915Z,10.00
2022-10-01T05:10:23.861Z,10.00
2022-10-01T05:12:51.626Z,10.00
2022-10-01T05:15:18.829Z,10.00
2022-10-01T05:17:46.557Z,10.00
2022-10-01T05:20:20.427Z,10.00
2022-10-01T05:22:47.360Z,10.00
2022-10-01T05:25:14.080Z,10.00
2022-10-01T05:27:41.038Z,10.00
2022-10-01T05:30:08.971Z,10.00
2022-10-01T05:32:37.857Z,10.00
2022-10-01T05:35:10.174Z,10.00
2022-10-01T05:37:36.755Z,10.00
2022-10-01T05:40:03.957Z,10.00
2022-10-01T05:42:30.501Z,10.10
2022-10-01T05:44:57.365Z,10.10
2022-10-01T05:47:23.950Z,10.10
2022-10-01T05:49:50.480Z,10.10
2022-10-01T05:52:17.018Z,10.10
2022-10-01T05:54:43.568Z,10.10
2022-10-01T05:57:12.943Z,10.10
2022-10-01T05:59:40.118Z,10.10
2022-10-01T06:02:09.063Z,10.10
2022-10-01T06:04:41.378Z,10.10
2022-10-01T06:07:10.272Z,10.10
2022-10-01T06:09:36.816Z,10.10
2022-10-01T06:12:05.110Z,10.10
2022-10-01T06:14:31.992Z,10.10
2022-10-01T06:17:03.541Z,10.10
2022-10-01T06:19:32.494Z,10.10
2022-10-01T06:21:59.367Z,10.10
2022-10-01T06:24:26.726Z,10.10
2022-10-01T06:26:53.927Z,10.10
2022-10-01T06:29:20.539Z,10.10
2022-10-01T06:31:47.127Z,10.10
2022-10-01T06:34:13.650Z,10.10
2022-10-01T06:36:40.189Z,10.10
2022-10-01T06:39:09.209Z,10.10
2022-10-01T06:41:36.186Z,10.10
2022-10-01T06:44:03.091Z,10.10
2022-10-01T06:46:32.376Z,10.10
2022-10-01T06:49:01.380Z,10.10
2022-10-01T06:51:46.431Z,10.10
2022-10-01T06:54:14.348Z,10.20
2022-10-01T06:56:43.261Z,10.20
2022-10-01T06:59:09.804Z,10.10
2022-10-01T07:01:39.059Z,10.10
2022-10-01T07:04:05.989Z,10.20
2022-10-01T07:06:34.669Z,10.20
2022-10-01T07:09:01.440Z,10.20
2022-10-01T07:11:28.053Z,10.30
2022-10-01T07:13:57.543Z,10.30
2022-10-01T07:16:24.214Z,10.30
2022-10-01T07:18:51.686Z,10.30
2022-10-01T07:21:18.219Z,10.30
2022-10-01T07:23:47.145Z,10.30
2022-10-01T07:26:13.734Z,10.30
2022-10-01T07:28:44.543Z,10.40
2022-10-01T07:31:11.647Z,10.40
2022-10-01T07:33:38.976Z,10.40
2022-10-01T07:36:06.536Z,10.40
2022-10-01T07:38:33.673Z,10.40
2022-10-01T07:41:02.441Z,10.50
2022-10-01T07:43:29.792Z,10.50
2022-10-01T07:45:58.148Z,10.50
2022-10-01T07:48:24.996Z,10.50
2022-10-01T07:50:53.950Z,10.50
2022-10-01T07:53:20.540Z,10.50
2022-10-01T07:55:49.199Z,10.50
2022-10-01T07:58:15.814Z,10.60
2022-10-01T08:00:43.344Z,10.60
2022-10-01T08:03:12.065Z,10.60
2022-10-01T08:05:40.225Z,10.70
2022-10-01T08:08:07.419Z,10.70
2022-10-01T08:10:36.955Z,10.70
2022-10-01T08:13:08.203Z,10.70
2022-10-01T08:15:35.323Z,10.70
2022-10-01T08:18:04.850Z,10.70
2022-10-01T08:20:34.089Z,10.70
2022-10-01T08:23:04.430Z,10.70
2022-10-01T08:25:31.173Z,10.80
2022-10-01T08:28:03.141Z,10.80
2022-10-01T08:30:30.046Z,10.80
2022-10-01T08:32:57.504Z,10.80
2022-10-01T08:35:24.694Z,10.90
2022-10-01T08:37:51.283Z,10.90
2022-10-01T08:40:19.459Z,10.90
2022-10-01T08:42:45.950Z,10.90
2022-10-01T08:45:23.885Z,10.90
2022-10-01T08:47:57.066Z,11.00
2022-10-01T08:50:41.258Z,11.00
2022-10-01T08:53:13.930Z,11.00
2022-10-01T08:55:41.123Z,11.00
2022-10-01T08:58:13.712Z,11.00
2022-10-01T09:00:43.768Z,11.00
2022-10-01T09:03:12.381Z,11.10
2022-10-01T09:05:38.870Z,11.00
2022-10-01T09:08:08.095Z,11.10
2022-10-01T09:10:47.825Z,11.10
2022-10-01T09:13:14.321Z,11.10
2022-10-01T09:15:52.939Z,11.10
2022-10-01T09:18:27.453Z,11.10
2022-10-01T09:20:58.147Z,11.10
2022-10-01T09:23:31.973Z,11.20
2022-10-01T09:25:59.561Z,11.20
2022-10-01T09:28:30.491Z,11.20
2022-10-01T09:31:16.485Z,11.20
2022-10-01T09:33:45.243Z,11.30
2022-10-01T09:36:14.801Z,11.30
2022-10-01T09:38:42.262Z,11.30
2022-10-01T09:41:11.639Z,11.30
2022-10-01T09:43:42.189Z,11.30
2022-10-01T09:46:20.200Z,11.30
2022-10-01T09:49:05.482Z,11.30
2022-10-01T09:51:34.830Z,11.40
2022-10-01T09:54:18.075Z,11.50
2022-10-01T09:56:48.051Z,11.50
2022-10-01T09:59:20.499Z,11.50
2022-10-01T10:01:49.715Z,11.50
2022-10-01T10:04:20.908Z,11.50
2022-10-01T10:06:47.792Z,11.50
2022-10-01T10:09:16.491Z,11.60
2022-10-01T10:11:44.002Z,11.60
2022-10-01T10:14:27.314Z,11.60
2022-10-01T10:16:56.740Z,11.70
2022-10-01T10:19:25.781Z,11.70
2022-10-01T10:21:53.313Z,11.70
2022-10-01T10:24:40.077Z,11.70
2022-10-01T10:27:18.787Z,11.80
2022-10-01T10:29:45.342Z,11.80
2022-10-01T10:32:16.309Z,11.80
2022-10-01T10:34:47.032Z,11.90
2022-10-01T10:37:17.304Z,11.90
2022-10-01T10:39:47.236Z,11.90
2022-10-01T10:42:15.594Z,12.00
2022-10-01T10:44:46.651Z,12.00
2022-10-01T10:47:16.646Z,12.00
2022-10-01T10:50:01.224Z,12.00
2022-10-01T10:52:33.701Z,12.10
2022-10-01T10:55:01.721Z,12.10
2022-10-01T10:57:30.062Z,12.20
2022-10-01T10:59:56.557Z,12.20
2022-10-01T11:02:25.271Z,12.20
2022-10-01T11:04:53.497Z,12.30
2022-10-01T11:07:21.287Z,12.30
2022-10-01T11:10:00.430Z,12.30
2022-10-01T11:12:41.950Z,12.40
2022-10-01T11:15:18.542Z,12.40
2022-10-01T11:17:48.204Z,12.50
2022-10-01T11:20:27.015Z,12.50
2022-10-01T11:23:06.991Z,12.50
2022-10-01T11:25:33.511Z,12.60
2022-10-01T11:28:03.523Z,12.60
2022-10-01T11:30:37.083Z,12.70
2022-10-01T11:33:25.087Z,12.70
2022-10-01T11:35:58.500Z,12.80
2022-10-01T11:38:38.814Z,12.80
2022-10-01T11:41:10.606Z,12.80
2022-10-01T11:43:39.151Z,12.80
2022-10-01T11:46:11.926Z,12.80
2022-10-01T11:48:44.367Z,12.80
2022-10-01T11:51:18.836Z,12.80
2022-10-01T11:53:50.410Z,12.80
2022-10-01T11:56:50.962Z,12.90
2022-10-01T11:59:21.468Z,12.90
2022-10-01T12:01:50.830Z,13.10
2022-10-01T12:04:33.244Z,13.20
2022-10-01T12:06:59.749Z,13.30
2022-10-01T12:09:39.067Z,13.50
2022-10-01T12:12:13.257Z,13.60
2022-10-01T12:14:44.075Z,13.60
2022-10-01T12:17:18.683Z,13.70
2022-10-01T12:19:51.973Z,13.80
2022-10-01T12:22:24.645Z,13.80
2022-10-01T12:24:54.146Z,13.90
2022-10-01T12:27:23.533Z,13.90
2022-10-01T12:29:59.116Z,13.90
2022-10-01T12:32:37.828Z,13.90
2022-10-01T12:35:21.179Z,14.00
2022-10-01T12:38:08.068Z,14.00
2022-10-01T12:40:40.682Z,14.10
2022-10-01T12:43:31.725Z,14.20
2022-10-01T12:46:07.152Z,14.30
2022-10-01T12:48:44.770Z,14.40
2022-10-01T12:51:19.393Z,14.40
2022-10-01T12:53:51.913Z,14.40
2022-10-01T12:56:18.437Z,14.40
2022-10-01T12:59:06.123Z,14.40
2022-10-01T13:01:43.932Z,14.30
2022-10-01T13:04:11.029Z,14.40
2022-10-01T13:06:40.622Z,14.50
2022-10-01T13:09:36.321Z,14.40
2022-10-01T13:12:06.062Z,14.40
2022-10-01T13:14:33.307Z,14.60
2022-10-01T13:17:09.545Z,14.70
2022-10-01T13:19:51.269Z,14.80
2022-10-01T13:22:32.422Z,14.90
2022-10-01T13:25:10.611Z,15.00
2022-10-01T13:27:43.205Z,15.10
2022-10-01T13:30:16.125Z,15.10
2022-10-01T13:33:00.863Z,15.20
2022-10-01T13:35:36.269Z,15.40
2022-10-01T13:38:35.335Z,15.50
2022-10-01T13:41:05.561Z,15.60
2022-10-01T13:43:33.334Z,15.70
2022-10-01T13:46:08.759Z,15.80
2022-10-01T13:48:36.100Z,15.80
2022-10-01T13:51:08.837Z,15.80
2022-10-01T13:53:36.959Z,15.80
2022-10-01T13:56:07.783Z,15.80
2022-10-01T13:58:39.085Z,15.70
2022-10-01T14:01:12.536Z,15.70
2022-10-01T14:03:52.638Z,15.60
2022-10-01T14:06:23.758Z,15.50
2022-10-01T14:09:01.824Z,15.40
2022-10-01T14:11:49.032Z,15.30
2022-10-01T14:14:50.071Z,15.10
2022-10-01T14:17:19.878Z,14.90
2022-10-01T14:19:52.558Z,14.60
2022-10-01T14:22:21.808Z,14.10
2022-10-01T14:25:14.805Z,13.80
2022-10-01T14:27:51.918Z,13.70
2022-10-01T14:30:20.259Z,13.60
2022-10-01T14:33:05.547Z,13.60
2022-10-01T14:35:38.327Z,13.70
2022-10-01T14:38:11.551Z,13.80
2022-10-01T14:40:45.010Z,14.00
2022-10-01T14:43:22.151Z,14.10
2022-10-01T14:46:04.271Z,14.20
2022-10-01T14:48:31.964Z,14.30
2022-10-01T14:50:59.865Z,14.40
2022-10-01T14:53:30.063Z,14.50
2022-10-01T14:55:58.237Z,14.50
2022-10-01T14:58:28.762Z,14.50
2022-10-01T15:00:56.298Z,14.60
2022-10-01T15:03:23.059Z,14.60
2022-10-01T15:05:50.102Z,14.70
2022-10-01T15:08:24.177Z,14.70
2022-10-01T15:10:57.431Z,14.70
2022-10-01T15:13:26.704Z,14.70
2022-10-01T15:15:56.074Z,14.70
2022-10-01T15:18:23.390Z,14.70
2022-10-01T15:21:05.344Z,14.80
2022-10-01T15:23:33.279Z,14.80
2022-10-01T15:26:00.672Z,14.80
2022-10-01T15:28:32.717Z,14.90
2022-10-01T15:31:00.886Z,14.90
2022-10-01T15:33:29.049Z,15.00
2022-10-01T15:35:57.111Z,15.00
2022-10-01T15:38:26.902Z,15.00
2022-10-01T15:41:13.927Z,15.10
2022-10-01T15:43:45.741Z,15.00
2022-10-01T15:46:34.984Z,15.00
2022-10-01T15:49:12.903Z,15.00
2022-10-01T15:52:12.203Z,15.00
2022-10-01T15:54:40.355Z,14.90
2022-10-01T15:57:07.605Z,14.90
2022-10-01T15:59:35.907Z,14.90
2022-10-01T16:02:07.328Z,14.90
2022-10-01T16:04:33.938Z,14.90
2022-10-01T16:07:03.178Z,14.90
2022-10-01T16:09:30.671Z,14.80
2022-10-01T16:12:00.225Z,14.80
2022-10-01T16:14:42.056Z,14.80
2022-10-01T16:17:26.237Z,14.80
2022-10-01T16:19:54.820Z,14.80
2022-10-01T16:22:31.622Z,14.70
2022-10-01T16:25:01.491Z,14.70
2022-10-01T16:27:28.081Z,14.70
2022-10-01T16:30:05.433Z,14.70
2022-10-01T16:32:32.849Z,14.60
2022-10-01T16:35:18.095Z,14.60
2022-10-01T16:37:45.529Z,14.60
2022-10-01T16:40:16.411Z,14.50
2022-10-01T16:42:44.074Z,14.50
2022-10-01T16:45:15.794Z,14.50
2022-10-01T16:47:42.595Z,14.50
2022-10-01T16:50:15.930Z,14.40
2022-10-01T16:52:42.686Z,14.40
2022-10-01T16:55:15.607Z,14.40
2022-10-01T16:57:42.431Z,14.40
2022-10-01T17:00:09.979Z,14.30
2022-10-01T17:02:36.798Z,14.30
2022-10-01T17:05:03.581Z,14.30
2022-10-01T17:07:30.099Z,14.20
2022-10-01T17:09:56.975Z,14.20
2022-10-01T17:12:26.799Z,14.10
2022-10-01T17:14:53.291Z,14.10
2022-10-01T17:17:19.841Z,14.10
2022-10-01T17:19:46.371Z,14.00
2022-10-01T17:22:15.149Z,14.00
2022-10-01T17:24:41.771Z,14.00
2022-10-01T17:27:08.268Z,13.90
2022-10-01T17:29:39.029Z,13.90
2022-10-01T17:32:05.606Z,13.90
2022-10-01T17:34:34.531Z,13.90
2022-10-01T17:37:03.536Z,13.80
2022-10-01T17:39:30.586Z,13.70
2022-10-01T17:41:57.104Z,13.50
2022-10-01T17:44:23.665Z,13.50
2022-10-01T17:46:52.379Z,13.50
2022-10-01T17:49:21.500Z,13.50
2022-10-01T17:51:52.166Z,13.50
2022-10-01T17:54:19.962Z,13.50
2022-10-01T17:56:46.703Z,13.40
2022-10-01T17:59:13.234Z,13.40
2022-10-01T18:01:42.104Z,13.30
2022-10-01T18:04:12.320Z,13.20
2022-10-01T18:06:39.639Z,13.10
2022-10-01T18:09:06.274Z,13.10
2022-10-01T18:11:33.143Z,13.10
2022-10-01T18:13:59.708Z,13.10
2022-10-01T18:16:29.252Z,13.10
2022-10-01T18:21:46.552Z,13.10
2022-10-01T18:24:15.477Z,13.00
2022-10-01T18:26:42.049Z,12.90
2022-10-01T18:29:08.637Z,12.90
2022-10-01T18:31:36.411Z,12.90
2022-10-01T18:34:08.072Z,12.90
2022-10-01T18:36:43.359Z,12.80
2022-10-01T18:39:31.247Z,12.80
2022-10-01T18:41:58.095Z,12.80
2022-10-01T18:44:24.783Z,12.70
2022-10-01T18:46:59.634Z,12.70
2022-10-01T18:49:45.026Z,12.70
2022-10-01T18:52:20.888Z,12.60
2022-10-01T18:54:50.207Z,12.60
2022-10-01T18:57:37.801Z,12.60
2022-10-01T19:00:15.279Z,12.50
2022-10-01T19:02:48.116Z,12.50
2022-10-01T19:05:19.585Z,12.50
2022-10-01T19:07:46.124Z,12.50
2022-10-01T19:10:12.678Z,12.50
2022-10-01T19:12:50.464Z,12.50
2022-10-01T19:15:25.281Z,12.50
2022-10-01T19:17:54.866Z,12.50
2022-10-01T19:20:45.111Z,12.50
2022-10-01T19:23:21.531Z,12.40
2022-10-01T19:26:06.826Z,12.40
2022-10-01T19:28:51.594Z,12.40
2022-10-01T19:31:37.045Z,12.30
2022-10-01T19:34:10.373Z,12.40
2022-10-01T19:36:42.204Z,12.30
2022-10-01T19:39:19.399Z,12.30
2022-10-01T19:41:55.087Z,12.20
2022-10-01T19:44:28.439Z,12.20
2022-10-01T19:46:57.625Z,12.20
2022-10-01T19:49:27.385Z,12.10
2022-10-01T19:51:57.213Z,12.10
2022-10-01T19:54:30.084Z,12.10
2022-10-01T19:57:01.842Z,12.00
2022-10-01T19:59:30.861Z,12.00
2022-10-01T20:02:03.698Z,12.00
2022-10-01T20:04:40.967Z,12.00
2022-10-01T20:07:12.766Z,12.00
2022-10-01T20:09:44.019Z,11.90
2022-10-01T20:12:30.897Z,11.90
2022-10-01T20:15:09.681Z,11.90
2022-10-01T20:17:50.801Z,11.90
2022-10-01T20:20:20.616Z,11.90
2022-10-01T20:23:10.970Z,11.80
2022-10-01T20:25:46.799Z,11.80
2022-10-01T20:28:19.130Z,11.80
2022-10-01T20:30:54.598Z,11.70
2022-10-01T20:33:26.578Z,11.70
2022-10-01T20:36:03.490Z,11.70
2022-10-01T20:38:53.377Z,11.70
2022-10-01T20:41:21.125Z,11.70
2022-10-01T20:43:51.095Z,11.70
2022-10-01T20:46:33.312Z,11.70
2022-10-01T20:49:11.214Z,11.60
2022-10-01T20:51:42.844Z,11.60
2022-10-01T20:54:13.531Z,11.60
2022-10-01T20:56:51.135Z,11.60
2022-10-01T20:59:20.772Z,11.60
2022-10-01T21:02:02.356Z,11.50
2022-10-01T21:04:32.173Z,11.60
2022-10-01T21:07:08.223Z,11.50
2022-10-01T21:09:40.655Z,11.50
2022-10-01T21:12:15.843Z,11.50
2022-10-01T21:14:49.315Z,11.50
2022-10-01T21:17:36.223Z,11.50
2022-10-01T21:20:02.832Z,11.50
2022-10-01T21:22:38.687Z,11.40
2022-10-01T21:25:24.684Z,11.40
2022-10-01T21:28:03.909Z,11.40
2022-10-01T21:30:53.667Z,11.30
2022-10-01T21:33:24.741Z,11.30
2022-10-01T21:36:09.991Z,11.30
2022-10-01T21:38:48.935Z,11.30
2022-10-01T21:41:15.520Z,11.20
2022-10-01T21:44:00.956Z,11.20
2022-10-01T21:46:54.590Z,11.20
2022-10-01T21:49:24.334Z,11.20
2022-10-01T21:51:55.073Z,11.20
2022-10-01T21:54:35.888Z,11.20
2022-10-01T21:57:15.337Z,11.10
2022-10-01T21:59:59.364Z,11.10
2022-10-01T22:02:34.883Z,11.10
2022-10-01T22:05:11.435Z,11.00
2022-10-01T22:07:41.396Z,11.00
2022-10-01T22:10:20.211Z,11.00
2022-10-01T22:12:49.407Z,11.00
2022-10-01T22:15:24.902Z,10.90
2022-10-01T22:17:53.661Z,10.90
2022-10-01T22:20:21.961Z,10.90
2022-10-01T22:22:50.201Z,10.90
2022-10-01T22:25:16.854Z,10.90
2022-10-01T22:27:58.771Z,10.80
2022-10-01T22:30:26.355Z,10.80
2022-10-01T22:33:00.265Z,10.80
2022-10-01T22:35:28.791Z,10.80
2022-10-01T22:37:55.285Z,10.80
2022-10-01T22:40:26.987Z,10.80
2022-10-01T22:43:12.746Z,10.80
2022-10-01T22:45:44.485Z,10.80
2022-10-01T22:48:11.002Z,10.70
2022-10-01T22:50:51.211Z,10.70
2022-10-01T22:53:25.961Z,10.70
2022-10-01T22:55:54.311Z,10.70
2022-10-01T22:58:27.132Z,10.70
2022-10-01T23:01:08.881Z,10.70
2022-10-01T23:03:35.445Z,10.70
2022-10-01T23:06:06.201Z,10.80
2022-10-01T23:08:42.350Z,10.70
2022-10-01T23:11:23.605Z,10.70
2022-10-01T23:14:01.906Z,10.70
2022-10-01T23:16:57.809Z,10.70
2022-10-01T23:19:25.370Z,10.70
2022-10-01T23:22:04.191Z,10.70
2022-10-01T23:24:30.918Z,10.70
2022-10-01T23:27:12.673Z,10.70
2022-10-01T23:29:39.194Z,10.70
2022-10-01T23:32:15.100Z,10.70
2022-10-01T23:34:41.575Z,10.60
2022-10-01T23:37:14.038Z,10.60
2022-10-01T23:39:46.718Z,10.60
2022-10-01T23:42:27.013Z,10.60
2022-10-01T23:45:02.340Z,10.60
2022-10-01T23:47:37.943Z,10.60
2022-10-01T23:50:08.222Z,10.60
2022-10-01T23:52:38.584Z,10.60
2022-10-01T23:55:31.569Z,10.60
2022-10-01T23:58:03.371Z,10.60
